createdAt,value
2018-02-18T00:01:37.736Z,48.83
2018-02-18T00:04:06.064Z,42.40
2018-02-18T00:06:34.388Z,43.13
2018-02-18T00:09:02.840Z,43.50
2018-02-18T00:11:32.315Z,46.25
2018-02-18T00:14:00.637Z,41.50
2018-02-18T00:16:29.044Z,42.13
2018-02-18T00:18:57.377Z,37.13
2018-02-18T00:21:26.049Z,39.58
2018-02-18T00:23:54.460Z,37.67
2018-02-18T00:26:22.793Z,40.75
2018-02-18T00:28:51.168Z,37.90
2018-02-18T00:31:19.492Z,40.83
2018-02-18T00:33:47.815Z,38.28
2018-02-18T00:36:16.920Z,39.00
2018-02-18T00:38:45.220Z,36.85
2018-02-18T00:41:13.592Z,41.60
2018-02-18T00:43:42.691Z,37.70
2018-02-18T00:46:11.780Z,43.47
2018-02-18T00:48:41.097Z,43.47
2018-02-18T00:51:09.441Z,39.15
2018-02-18T00:53:38.410Z,43.72
2018-02-18T00:56:08.932Z,40.10
2018-02-18T00:58:37.772Z,41.78
2018-02-18T01:01:06.096Z,39.53
2018-02-18T01:03:34.456Z,37.08
2018-02-18T01:06:02.882Z,40.17
2018-02-18T01:08:32.559Z,40.22
2018-02-18T01:11:01.012Z,38.78
2018-02-18T01:13:29.342Z,38.88
2018-02-18T01:15:57.721Z,36.90
2018-02-18T01:18:26.048Z,36.30
2018-02-18T01:20:54.388Z,38.15
2018-02-18T01:23:23.808Z,39.60
2018-02-18T01:25:52.353Z,37.75
2018-02-18T01:28:20.643Z,39.10
2018-02-18T01:30:49.029Z,37.20
2018-02-18T01:33:18.116Z,38.67
2018-02-18T01:35:46.444Z,37.85
2018-02-18T01:38:14.798Z,40.42
2018-02-18T01:40:43.125Z,40.75
2018-02-18T01:43:11.440Z,35.20
2018-02-18T01:45:39.789Z,37.28
2018-02-18T01:48:08.113Z,37.30
2018-02-18T01:50:38.940Z,35.67
2018-02-18T01:53:07.270Z,35.78
2018-02-18T01:55:35.595Z,34.00
2018-02-18T01:58:04.596Z,35.63
2018-02-18T02:00:32.920Z,36.33
2018-02-18T02:03:01.244Z,33.03
2018-02-18T02:05:30.060Z,33.25
2018-02-18T02:07:58.382Z,34.97
2018-02-18T02:10:26.708Z,32.05
2018-02-18T02:12:55.083Z,35.42
2018-02-18T02:15:23.422Z,36.58
2018-02-18T02:17:52.355Z,35.17
2018-02-18T02:20:20.720Z,34.95
2018-02-18T02:22:49.046Z,35.30
2018-02-18T02:25:17.416Z,34.63
2018-02-18T02:27:45.755Z,34.30
2018-02-18T02:30:14.086Z,40.30
2018-02-18T02:32:43.212Z,33.72
2018-02-18T02:35:11.805Z,37.40
2018-02-18T02:37:40.183Z,37.42
2018-02-18T02:40:08.564Z,36.83
2018-02-18T02:42:37.428Z,37.00
2018-02-18T02:45:05.739Z,36.22
2018-02-18T02:47:34.137Z,32.97
2018-02-18T02:50:02.472Z,34.05
2018-02-18T02:52:30.845Z,37.55
2018-02-18T02:54:59.171Z,36.75
2018-02-18T02:57:27.548Z,37.78
2018-02-18T02:59:56.429Z,35.60
2018-02-18T03:02:24.758Z,38.03
2018-02-18T03:04:53.091Z,39.55
2018-02-18T03:07:21.457Z,40.03
2018-02-18T03:09:50.324Z,39.15
2018-02-18T03:12:18.648Z,37.40
2018-02-18T03:14:48.356Z,40.53
2018-02-18T03:17:17.486Z,38.80
2018-02-18T03:19:45.958Z,41.70
2018-02-18T03:22:14.336Z,39.83
2018-02-18T03:24:43.337Z,40.92
2018-02-18T03:27:19.744Z,39.95
2018-02-18T03:29:48.086Z,40.63
2018-02-18T03:32:16.413Z,42.90
2018-02-18T03:34:44.884Z,43.47
2018-02-18T03:37:14.758Z,47.47
2018-02-18T03:39:43.088Z,44.42
2018-02-18T03:42:12.225Z,44.30
2018-02-18T03:44:41.012Z,40.70
2018-02-18T03:47:09.335Z,45.30
2018-02-18T03:49:37.697Z,43.65
2018-02-18T03:52:06.028Z,40.83
2018-02-18T03:54:34.384Z,43.63
2018-02-18T03:57:03.476Z,41.05
2018-02-18T03:59:33.075Z,45.28
2018-02-18T04:02:01.430Z,45.05
2018-02-18T04:04:29.754Z,49.75
2018-02-18T04:06:58.133Z,51.70
2018-02-18T04:09:26.465Z,46.92
2018-02-18T04:11:54.791Z,49.95
2018-02-18T04:14:23.917Z,47.08
2018-02-18T04:16:52.245Z,46.55
2018-02-18T04:19:21.748Z,45.63
2018-02-18T04:21:50.092Z,45.30
2018-02-18T04:24:18.560Z,43.00
2018-02-18T04:26:47.182Z,44.17
2018-02-18T04:29:15.776Z,38.53
2018-02-18T04:31:45.111Z,38.25
2018-02-18T04:34:13.455Z,37.03
2018-02-18T04:36:41.896Z,35.85
2018-02-18T04:39:10.229Z,38.67
2018-02-18T04:41:38.555Z,41.30
2018-02-18T04:44:07.113Z,41.50
2018-02-18T04:46:35.913Z,38.20
2018-02-18T04:49:04.373Z,39.53
2018-02-18T04:51:32.705Z,38.92
2018-02-18T04:54:01.076Z,40.28
2018-02-18T04:56:29.413Z,39.53
2018-02-18T04:58:57.749Z,42.35
2018-02-18T05:01:26.890Z,43.05
2018-02-18T05:03:55.250Z,41.60
2018-02-18T05:06:23.593Z,43.92
2018-02-18T05:08:51.957Z,44.80
2018-02-18T05:11:20.289Z,39.60
2018-02-18T05:13:48.695Z,42.78
2018-02-18T05:16:17.024Z,42.85
2018-02-18T05:18:45.365Z,43.65
2018-02-18T05:21:13.728Z,42.85
2018-02-18T05:23:42.059Z,39.17
2018-02-18T05:26:10.396Z,41.50
2018-02-18T05:28:39.057Z,43.78
2018-02-18T05:31:08.712Z,40.22
2018-02-18T05:33:37.072Z,42.13
2018-02-18T05:36:05.428Z,40.58
2018-02-18T05:38:35.114Z,39.42
2018-02-18T05:41:03.448Z,36.00
2018-02-18T05:43:31.829Z,41.90
2018-02-18T05:46:00.149Z,36.83
2018-02-18T05:48:28.476Z,37.88
2018-02-18T05:50:56.847Z,40.45
2018-02-18T05:53:25.204Z,37.38
2018-02-18T05:55:53.541Z,38.42
2018-02-18T05:58:21.906Z,33.53
2018-02-18T06:00:50.245Z,31.48
2018-02-18T06:03:18.622Z,31.70
2018-02-18T06:05:46.956Z,34.15
2018-02-18T06:08:16.043Z,37.03
2018-02-18T06:10:44.828Z,34.13
2018-02-18T06:13:18.960Z,34.53
2018-02-18T06:15:47.412Z,33.75
2018-02-18T06:18:16.227Z,33.28
2018-02-18T06:20:44.548Z,34.88
2018-02-18T06:23:12.920Z,34.22
2018-02-18T06:25:41.353Z,35.65
2018-02-18T06:28:11.005Z,38.38
2018-02-18T06:30:39.328Z,38.90
2018-02-18T06:33:08.344Z,36.35
2018-02-18T06:35:36.674Z,39.03
2018-02-18T06:38:05.008Z,36.75
2018-02-18T06:40:33.721Z,42.30
2018-02-18T06:43:02.414Z,40.17
2018-02-18T06:45:30.752Z,43.95
2018-02-18T06:47:59.123Z,44.83
2018-02-18T06:50:28.225Z,46.47
2018-02-18T06:52:57.866Z,43.30
2018-02-18T06:55:26.215Z,43.33
2018-02-18T06:57:55.312Z,41.00
2018-02-18T07:00:24.457Z,39.05
2018-02-18T07:02:52.783Z,41.28
2018-02-18T07:05:21.118Z,42.13
2018-02-18T07:07:49.489Z,40.80
2018-02-18T07:10:18.591Z,38.00
2018-02-18T07:12:46.932Z,41.42
2018-02-18T07:15:15.285Z,39.88
2018-02-18T07:17:43.644Z,41.63
2018-02-18T07:20:11.969Z,37.67
2018-02-18T07:22:41.127Z,39.05
2018-02-18T07:25:09.778Z,36.83
2018-02-18T07:27:38.108Z,36.70
2018-02-18T07:30:07.297Z,36.67
2018-02-18T07:32:36.577Z,36.10
2018-02-18T07:35:06.953Z,37.42
2018-02-18T07:37:35.810Z,41.37
2018-02-18T07:40:04.144Z,35.72
2018-02-18T07:42:32.745Z,32.45
2018-02-18T07:45:01.168Z,34.20
2018-02-18T07:47:29.560Z,34.00
2018-02-18T07:49:58.016Z,30.20
2018-02-18T07:52:26.433Z,32.45
2018-02-18T07:54:54.793Z,30.85
2018-02-18T07:57:23.136Z,31.37
2018-02-18T07:59:51.450Z,30.30
2018-02-18T08:02:21.752Z,32.60
2018-02-18T08:04:50.783Z,31.02
2018-02-18T08:07:19.108Z,32.33
2018-02-18T08:09:47.512Z,29.10
2018-02-18T08:12:16.256Z,25.15
2018-02-18T08:14:45.573Z,24.85
2018-02-18T08:17:13.940Z,26.87
2018-02-18T08:19:42.259Z,27.05
2018-02-18T08:22:10.580Z,24.30
2018-02-18T08:24:38.925Z,25.20
2018-02-18T08:27:07.307Z,25.80
2018-02-18T08:29:35.686Z,27.05
2018-02-18T08:32:06.200Z,27.65
2018-02-18T08:34:35.096Z,25.20
2018-02-18T08:37:03.657Z,27.90
2018-02-18T08:39:31.995Z,27.90
2018-02-18T08:42:00.376Z,29.87
2018-02-18T08:44:28.893Z,26.58
2018-02-18T08:46:57.206Z,25.07
2018-02-18T08:49:25.577Z,24.50
2018-02-18T08:51:53.956Z,25.55
2018-02-18T08:54:22.272Z,22.73
2018-02-18T08:56:50.738Z,23.42
2018-02-18T08:59:19.064Z,24.10
2018-02-18T09:01:47.377Z,18.93
2018-02-18T09:04:16.741Z,22.37
2018-02-18T09:06:45.064Z,23.93
2018-02-18T09:09:13.378Z,23.23
2018-02-18T09:11:41.740Z,26.70
2018-02-18T09:14:10.287Z,25.77
2018-02-18T09:16:38.602Z,22.23
2018-02-18T09:19:06.992Z,24.25
2018-02-18T09:21:35.333Z,21.95
2018-02-18T09:24:03.663Z,22.58
2018-02-18T09:26:32.032Z,24.05
2018-02-18T09:29:01.464Z,20.75
2018-02-18T09:31:30.464Z,23.90
2018-02-18T09:33:58.806Z,20.23
2018-02-18T09:36:27.120Z,23.10
2018-02-18T09:38:55.516Z,20.60
2018-02-18T09:41:23.854Z,20.33
2018-02-18T09:43:52.168Z,21.73
2018-02-18T09:46:21.288Z,23.50
2018-02-18T09:48:49.598Z,21.23
2018-02-18T09:51:17.928Z,24.30
2018-02-18T09:53:47.311Z,22.53
2018-02-18T09:56:15.703Z,21.47
2018-02-18T09:58:44.076Z,21.97
2018-02-18T10:01:12.646Z,20.97
2018-02-18T10:03:41.000Z,23.00
2018-02-18T10:06:09.800Z,22.73
2018-02-18T10:08:51.302Z,21.03
2018-02-18T10:11:20.134Z,21.60
2018-02-18T10:13:48.604Z,23.23
2018-02-18T10:16:17.447Z,21.67
2018-02-18T10:18:45.747Z,23.20
2018-02-18T10:21:14.064Z,21.27
2018-02-18T10:23:43.146Z,21.33
2018-02-18T10:26:11.454Z,24.80
2018-02-18T10:28:40.394Z,19.03
2018-02-18T10:31:08.800Z,20.67
2018-02-18T10:33:37.124Z,22.53
2018-02-18T10:36:05.433Z,20.53
2018-02-18T10:38:34.396Z,22.40
2018-02-18T10:41:02.704Z,23.20
2018-02-18T10:43:31.601Z,22.60
2018-02-18T10:46:00.194Z,22.97
2018-02-18T10:48:31.445Z,22.87
2018-02-18T10:50:59.759Z,22.40
2018-02-18T10:53:28.110Z,22.83
2018-02-18T10:55:56.437Z,20.30
2018-02-18T10:58:24.961Z,24.20
2018-02-18T11:00:53.288Z,22.33
2018-02-18T11:03:25.560Z,21.60
2018-02-18T11:05:54.141Z,19.60
2018-02-18T11:08:22.452Z,15.83
2018-02-18T11:10:50.884Z,18.83
2018-02-18T11:13:19.974Z,20.50
2018-02-18T11:15:49.212Z,13.93
2018-02-18T11:18:17.789Z,19.60
2018-02-18T11:20:48.903Z,18.40
2018-02-18T11:23:17.461Z,17.42
2018-02-18T11:25:45.782Z,17.00
2018-02-18T11:28:14.111Z,14.83
2018-02-18T11:30:42.513Z,16.83
2018-02-18T11:33:11.292Z,15.20
2018-02-18T11:35:40.225Z,15.80
2018-02-18T11:38:08.584Z,15.43
2018-02-18T11:40:37.620Z,18.17
2018-02-18T11:43:06.471Z,14.93
2018-02-18T11:45:35.879Z,21.50
2018-02-18T11:48:04.453Z,18.20
2018-02-18T11:50:37.356Z,18.97
2018-02-18T11:53:06.891Z,15.33
2018-02-18T11:55:35.356Z,16.63
2018-02-18T11:58:03.673Z,16.17
2018-02-18T12:00:32.388Z,14.87
2018-02-18T12:03:00.761Z,13.70
2018-02-18T12:05:30.805Z,16.13
2018-02-18T12:07:59.185Z,17.20
2018-02-18T12:10:27.552Z,16.50
2018-02-18T12:12:55.911Z,17.37
2018-02-18T12:15:24.223Z,18.90
2018-02-18T12:17:52.573Z,18.43
2018-02-18T12:20:20.884Z,18.13
2018-02-18T12:25:23.767Z,16.23
2018-02-18T12:27:52.116Z,17.57
2018-02-18T12:30:20.432Z,17.77
2018-02-18T12:32:48.805Z,17.90
2018-02-18T12:35:17.792Z,18.23
2018-02-18T12:37:46.141Z,18.03
2018-02-18T12:40:14.457Z,18.90
2018-02-18T12:42:42.008Z,18.83
2018-02-18T12:45:10.601Z,18.63
2018-02-18T12:47:40.077Z,18.50
2018-02-18T12:50:08.402Z,18.70
2018-02-18T12:52:36.711Z,15.87
2018-02-18T12:55:05.056Z,15.80
2018-02-18T12:57:33.813Z,16.40
2018-02-18T13:00:02.168Z,15.00
2018-02-18T13:02:30.529Z,13.17
2018-02-18T13:04:58.840Z,14.70
2018-02-18T13:07:27.189Z,15.70
2018-02-18T13:09:55.503Z,14.00
2018-02-18T13:12:24.610Z,16.40
2018-02-18T13:14:52.984Z,14.40
2018-02-18T13:17:21.311Z,14.63
2018-02-18T13:19:49.753Z,15.40
2018-02-18T13:22:19.970Z,15.83
2018-02-18T13:24:48.290Z,16.63
2018-02-18T13:27:16.604Z,15.33
2018-02-18T13:29:45.665Z,16.07
2018-02-18T13:32:13.974Z,16.27
2018-02-18T13:34:42.305Z,16.40
2018-02-18T13:37:11.118Z,16.80
2018-02-18T13:39:39.426Z,15.03
2018-02-18T13:42:07.816Z,16.87
2018-02-18T13:44:36.186Z,16.90
2018-02-18T13:47:05.072Z,14.83
2018-02-18T13:49:33.617Z,15.03
2018-02-18T13:52:02.588Z,16.80
2018-02-18T13:54:31.059Z,15.03
2018-02-18T13:56:59.400Z,14.93
2018-02-18T13:59:27.721Z,15.57
2018-02-18T14:01:56.029Z,14.97
2018-02-18T14:04:24.436Z,16.50
2018-02-18T14:06:52.804Z,17.77
2018-02-18T14:09:21.252Z,19.93
2018-02-18T14:11:50.540Z,16.37
2018-02-18T14:14:19.675Z,17.23
2018-02-18T14:16:47.988Z,16.00
2018-02-18T14:19:16.303Z,16.47
2018-02-18T14:21:44.656Z,16.67
2018-02-18T14:24:12.976Z,16.50
2018-02-18T14:26:41.369Z,17.50
2018-02-18T14:29:09.681Z,18.70
2018-02-18T14:31:40.231Z,18.63
2018-02-18T14:34:08.593Z,16.97
2018-02-18T14:36:36.978Z,16.90
2018-02-18T14:39:06.057Z,16.70
2018-02-18T14:41:52.881Z,16.60
2018-02-18T14:44:38.730Z,18.87
2018-02-18T14:47:24.592Z,18.90
2018-02-18T14:50:10.462Z,17.67
2018-02-18T14:52:56.459Z,20.60
2018-02-18T14:55:42.996Z,18.80
2018-02-18T14:58:11.719Z,17.50
2018-02-18T15:00:40.437Z,17.53
2018-02-18T15:03:08.757Z,13.57
2018-02-18T15:05:37.157Z,16.80
2018-02-18T15:08:05.483Z,17.10
2018-02-18T15:10:33.791Z,14.77
2018-02-18T15:13:02.182Z,18.93
2018-02-18T15:15:30.805Z,16.63
2018-02-18T15:17:59.701Z,14.30
2018-02-18T15:20:28.248Z,17.33
2018-02-18T15:22:56.560Z,17.00
2018-02-18T15:25:24.893Z,15.67
2018-02-18T15:27:53.664Z,14.20
2018-02-18T15:30:22.000Z,14.97
2018-02-18T15:32:50.335Z,19.23
2018-02-18T15:35:18.702Z,18.60
2018-02-18T15:37:47.044Z,15.57
2018-02-18T15:40:16.157Z,16.00
2018-02-18T15:42:44.585Z,15.70
2018-02-18T15:45:12.996Z,19.73
2018-02-18T15:47:41.555Z,17.50
2018-02-18T15:50:10.276Z,16.70
2018-02-18T15:52:39.987Z,15.60
2018-02-18T15:55:08.597Z,18.60
2018-02-18T15:57:37.038Z,19.40
2018-02-18T16:00:05.371Z,18.50
2018-02-18T16:02:33.740Z,18.37
2018-02-18T16:05:02.701Z,15.10
2018-02-18T16:07:31.061Z,17.10
2018-02-18T16:09:59.422Z,17.60
2018-02-18T16:12:27.851Z,17.13
2018-02-18T16:14:56.210Z,19.80
2018-02-18T16:17:24.566Z,18.40
2018-02-18T16:19:52.974Z,19.73
2018-02-18T16:22:21.308Z,17.60
2018-02-18T16:24:49.715Z,16.43
2018-02-18T16:27:18.166Z,15.83
2018-02-18T16:29:46.526Z,18.03
2018-02-18T16:32:14.876Z,21.30
2018-02-18T16:34:44.188Z,15.40
2018-02-18T16:37:12.542Z,19.70
2018-02-18T16:39:40.898Z,20.10
2018-02-18T16:42:09.304Z,20.55
2018-02-18T16:44:37.650Z,18.80
2018-02-18T16:47:06.033Z,20.33
2018-02-18T16:49:34.430Z,22.77
2018-02-18T16:52:03.370Z,25.33
2018-02-18T16:54:32.465Z,19.30
2018-02-18T16:57:00.871Z,18.57
2018-02-18T16:59:29.986Z,20.87
2018-02-18T17:01:58.313Z,19.63
2018-02-18T17:04:28.686Z,19.27
2018-02-18T17:06:57.001Z,20.73
2018-02-18T17:09:25.337Z,18.50
2018-02-18T17:11:53.745Z,19.77
2018-02-18T17:14:22.074Z,21.17
2018-02-18T17:16:50.302Z,22.60
2018-02-18T17:19:18.673Z,19.47
2018-02-18T17:21:47.005Z,20.57
2018-02-18T17:24:16.849Z,25.53
2018-02-18T17:26:47.161Z,26.00
2018-02-18T17:29:15.853Z,23.87
2018-02-18T17:31:45.297Z,23.50
2018-02-18T17:34:14.385Z,24.10
2018-02-18T17:36:43.456Z,22.80
2018-02-18T17:39:12.566Z,24.53
2018-02-18T17:41:41.737Z,22.53
2018-02-18T17:44:10.051Z,21.20
2018-02-18T17:46:38.404Z,24.07
2018-02-18T17:49:06.773Z,22.20
2018-02-18T17:51:35.265Z,21.50
2018-02-18T17:54:03.592Z,20.20
2018-02-18T17:56:31.960Z,21.87
2018-02-18T17:59:00.681Z,21.10
2018-02-18T18:01:28.986Z,19.50
2018-02-18T18:03:57.401Z,19.37
2018-02-18T18:06:25.723Z,22.40
2018-02-18T18:08:54.801Z,19.50
2018-02-18T18:11:23.321Z,22.80
2018-02-18T18:13:52.855Z,23.57
2018-02-18T18:16:21.182Z,21.93
2018-02-18T18:18:49.852Z,21.08
2018-02-18T18:21:18.596Z,23.87
2018-02-18T18:23:46.926Z,24.43
2018-02-18T18:26:15.299Z,22.57
2018-02-18T18:28:44.024Z,19.13
2018-02-18T18:31:12.346Z,23.77
2018-02-18T18:33:40.724Z,22.77
2018-02-18T18:36:09.044Z,23.07
2018-02-18T18:38:38.021Z,23.00
2018-02-18T18:41:06.383Z,23.33
2018-02-18T18:43:34.697Z,24.50
2018-02-18T18:46:03.013Z,21.67
2018-02-18T18:48:31.380Z,21.57
2018-02-18T18:51:00.462Z,20.27
2018-02-18T18:53:29.545Z,24.87
2018-02-18T18:55:59.120Z,23.47
2018-02-18T18:58:27.536Z,21.90
2018-02-18T19:00:55.860Z,19.73
2018-02-18T19:03:24.292Z,20.83
2018-02-18T19:05:52.609Z,24.43
2018-02-18T19:08:20.933Z,23.20
2018-02-18T19:10:50.944Z,23.73
2018-02-18T19:15:54.045Z,19.57
2018-02-18T19:18:22.412Z,23.17
2018-02-18T19:20:51.721Z,22.20
2018-02-18T19:23:22.199Z,20.63
2018-02-18T19:25:50.513Z,19.67
2018-02-18T19:28:18.828Z,21.13
2018-02-18T19:30:47.222Z,21.37
2018-02-18T19:33:15.656Z,21.80
2018-02-18T19:35:44.660Z,20.27
2018-02-18T19:38:13.691Z,20.63
2018-02-18T19:40:42.068Z,22.67
2018-02-18T19:43:10.401Z,23.40
2018-02-18T19:45:38.765Z,23.90
2018-02-18T19:48:07.433Z,22.20
2018-02-18T19:50:35.749Z,21.30
2018-02-18T19:53:05.868Z,20.13
2018-02-18T19:55:34.184Z,19.13
2018-02-18T19:58:02.845Z,20.33
2018-02-18T20:00:32.152Z,20.63
2018-02-18T20:03:00.817Z,20.07
2018-02-18T20:05:30.524Z,19.65
2018-02-18T20:07:58.884Z,18.40
2018-02-18T20:10:28.158Z,18.13
2018-02-18T20:12:56.484Z,17.77
2018-02-18T20:15:25.354Z,16.83
2018-02-18T20:17:54.265Z,14.50
2018-02-18T20:20:24.724Z,16.37
2018-02-18T20:22:53.052Z,15.53
2018-02-18T20:25:21.364Z,15.00
2018-02-18T20:27:50.010Z,16.50
2018-02-18T20:30:18.824Z,14.30
2018-02-18T20:32:48.741Z,14.67
2018-02-18T20:35:17.520Z,15.60
2018-02-18T20:37:46.784Z,15.47
2018-02-18T20:40:15.181Z,16.73
2018-02-18T20:42:44.082Z,14.83
2018-02-18T20:45:12.547Z,18.00
2018-02-18T20:47:41.396Z,15.17
2018-02-18T20:50:09.712Z,16.60
2018-02-18T20:52:38.344Z,14.70
2018-02-18T20:55:06.660Z,14.47
2018-02-18T20:57:34.980Z,18.83
2018-02-18T21:00:03.364Z,15.70
2018-02-18T21:02:31.689Z,16.10
2018-02-18T21:05:00.018Z,18.90
2018-02-18T21:07:30.004Z,17.33
2018-02-18T21:09:58.385Z,16.80
2018-02-18T21:12:26.908Z,19.03
2018-02-18T21:14:55.264Z,18.05
2018-02-18T21:17:24.269Z,18.87
2018-02-18T21:19:52.589Z,19.20
2018-02-18T21:22:20.942Z,17.87
2018-02-18T21:24:49.793Z,17.33
2018-02-18T21:27:19.037Z,19.07
2018-02-18T21:29:47.777Z,20.73
2018-02-18T21:32:16.100Z,19.80
2018-02-18T21:34:49.580Z,19.80
2018-02-18T21:37:17.659Z,23.40
2018-02-18T21:39:45.985Z,21.27
2018-02-18T21:42:14.403Z,19.87
2018-02-18T21:44:42.713Z,20.30
2018-02-18T21:47:11.037Z,20.53
2018-02-18T21:49:39.392Z,21.10
2018-02-18T21:52:07.712Z,21.60
2018-02-18T21:54:36.026Z,19.27
2018-02-18T21:57:04.756Z,20.20
2018-02-18T21:59:33.220Z,20.10
2018-02-18T22:02:01.537Z,18.13
2018-02-18T22:04:29.905Z,18.57
2018-02-18T22:06:58.216Z,18.73
2018-02-18T22:09:28.907Z,17.13
2018-02-18T22:11:57.272Z,15.97
2018-02-18T22:14:26.064Z,15.47
2018-02-18T22:16:55.043Z,18.00
2018-02-18T22:19:23.352Z,17.30
2018-02-18T22:21:51.712Z,17.50
2018-02-18T22:24:20.113Z,18.73
2018-02-18T22:26:48.430Z,18.10
2018-02-18T22:29:17.392Z,18.97
2018-02-18T22:31:45.707Z,19.13
2018-02-18T22:34:14.169Z,19.93
2018-02-18T22:36:43.037Z,18.13
2018-02-18T22:39:11.348Z,17.50
2018-02-18T22:41:39.745Z,18.75
2018-02-18T22:44:08.100Z,16.03
2018-02-18T22:46:36.408Z,15.50
2018-02-18T22:49:05.004Z,16.50
2018-02-18T22:51:33.344Z,18.53
2018-02-18T22:54:01.692Z,18.33
2018-02-18T22:56:30.296Z,19.20
2018-02-18T22:58:58.661Z,18.57
2018-02-18T23:01:27.750Z,20.60
2018-02-18T23:03:57.499Z,18.83
2018-02-18T23:06:25.892Z,17.73
2018-02-18T23:08:54.228Z,18.73
2018-02-18T23:11:23.300Z,16.33
2018-02-18T23:13:51.648Z,21.20
2018-02-18T23:16:20.043Z,17.50
2018-02-18T23:18:48.347Z,19.13
2018-02-18T23:21:16.721Z,17.37
2018-02-18T23:23:45.324Z,19.47
2018-02-18T23:26:14.404Z,18.30
2018-02-18T23:28:42.848Z,18.53
2018-02-18T23:31:11.156Z,18.07
2018-02-18T23:33:39.484Z,18.17
2018-02-18T23:36:07.851Z,17.80
2018-02-18T23:38:36.156Z,17.90
2018-02-18T23:41:04.465Z,16.33
2018-02-18T23:43:32.832Z,17.47
2018-02-18T23:46:01.159Z,17.90
2018-02-18T23:48:29.480Z,18.42
2018-02-18T23:50:57.888Z,18.80
2018-02-18T23:53:26.208Z,16.80
2018-02-18T23:55:54.519Z,15.03
2018-02-18T23:58:22.880Z,12.70
